createdAt,value
2023-02-11T00:02:32.277Z,58.76
2023-02-11T00:05:10.443Z,58.72
2023-02-11T00:08:02.516Z,58.91
2023-02-11T00:10:57.119Z,58.82
2023-02-11T00:13:38.040Z,58.81
2023-02-11T00:16:31.876Z,58.76
2023-02-11T00:19:07.259Z,58.98
2023-02-11T00:21:59.397Z,58.99
2023-02-11T00:24:51.604Z,59.17
2023-02-11T00:27:43.878Z,58.95
2023-02-11T00:30:36.641Z,58.96
2023-02-11T00:33:13.879Z,59.13
2023-02-11T00:36:09.416Z,58.93
2023-02-11T00:39:02.121Z,59.20
2023-02-11T00:41:36.655Z,59.22
2023-02-11T00:44:28.873Z,59.37
2023-02-11T00:47:20.915Z,59.44
2023-02-11T00:50:13.192Z,59.52
2023-02-11T00:52:47.995Z,59.60
2023-02-11T00:55:40.234Z,59.67
2023-02-11T00:58:32.313Z,59.82
2023-02-11T01:01:24.480Z,60.17
2023-02-11T01:04:16.624Z,60.35
2023-02-11T01:07:08.949Z,60.30
2023-02-11T01:10:01.813Z,60.48
2023-02-11T01:12:54.436Z,60.74
2023-02-11T01:15:46.580Z,60.90
2023-02-11T01:18:29.967Z,60.96
2023-02-11T01:21:22.109Z,61.02
2023-02-11T01:24:14.209Z,61.05
2023-02-11T01:27:06.696Z,61.11
2023-02-11T01:29:59.200Z,61.40
2023-02-11T01:32:51.530Z,61.43
2023-02-11T01:35:34.103Z,61.56
2023-02-11T01:38:27.490Z,61.63
2023-02-11T01:41:19.723Z,61.46
2023-02-11T01:44:29.978Z,61.73
2023-02-11T01:47:22.685Z,61.61
2023-02-11T01:50:14.867Z,61.60
2023-02-11T01:53:21.222Z,61.61
2023-02-11T01:56:14.462Z,61.45
2023-02-11T01:59:14.575Z,61.56
2023-02-11T02:02:12.563Z,61.78
2023-02-11T02:05:10.997Z,61.69
2023-02-11T02:08:12.629Z,61.67
2023-02-11T02:11:05.957Z,61.60
2023-02-11T02:13:47.282Z,61.50
2023-02-11T02:16:40.273Z,61.48
2023-02-11T02:20:04.127Z,61.21
2023-02-11T02:23:17.988Z,61.19
2023-02-11T02:26:39.031Z,61.49
2023-02-11T02:30:09.926Z,61.68
2023-02-11T02:33:02.213Z,61.63
2023-02-11T02:36:08.960Z,61.78
2023-02-11T02:39:13.597Z,61.80
2023-02-11T02:42:04.563Z,61.96
2023-02-11T02:44:59.156Z,61.94
2023-02-11T02:47:51.280Z,61.98
2023-02-11T02:50:43.657Z,61.87
2023-02-11T02:53:48.477Z,61.68
2023-02-11T02:56:45.819Z,62.03
2023-02-11T02:59:50.153Z,62.05
2023-02-11T03:02:49.910Z,61.95
2023-02-11T03:05:50.257Z,62.02
2023-02-11T03:08:44.641Z,61.90
2023-02-11T03:11:38.223Z,61.88
2023-02-11T03:14:22.031Z,61.72
2023-02-11T03:17:16.560Z,61.90
2023-02-11T03:20:12.172Z,61.93
2023-02-11T03:23:09.734Z,61.80
2023-02-11T03:26:09.791Z,61.37
2023-02-11T03:29:09.770Z,61.06
2023-02-11T03:32:12.309Z,61.13
2023-02-11T03:35:10.980Z,60.75
2023-02-11T03:38:08.601Z,60.48
2023-02-11T03:41:03.514Z,60.61
2023-02-11T03:43:58.058Z,60.62
2023-02-11T03:46:53.552Z,60.57
2023-02-11T03:49:49.126Z,60.27
2023-02-11T03:52:41.317Z,60.24
2023-02-11T03:55:38.180Z,60.19
2023-02-11T03:58:30.275Z,60.06
2023-02-11T04:01:22.507Z,60.03
2023-02-11T04:04:14.709Z,59.87
2023-02-11T04:07:06.832Z,59.94
2023-02-11T04:09:59.171Z,59.59
2023-02-11T04:12:51.224Z,59.68
2023-02-11T04:15:43.253Z,59.90
2023-02-11T04:18:35.361Z,59.70
2023-02-11T04:21:27.526Z,59.85
2023-02-11T04:24:19.728Z,59.98
2023-02-11T04:27:11.965Z,59.91
2023-02-11T04:30:04.536Z,59.83
2023-02-11T04:32:56.601Z,59.65
2023-02-11T04:35:49.289Z,59.96
2023-02-11T04:38:41.718Z,59.73
2023-02-11T04:41:33.847Z,59.78
2023-02-11T04:44:25.960Z,59.96
2023-02-11T04:47:18.020Z,59.95
2023-02-11T04:50:10.816Z,59.87
2023-02-11T04:53:02.976Z,59.88
2023-02-11T04:55:55.074Z,59.85
2023-02-11T04:58:47.310Z,59.92
2023-02-11T05:01:39.565Z,59.96
2023-02-11T05:04:31.799Z,59.95
2023-02-11T05:07:23.941Z,59.77
2023-02-11T05:10:15.886Z,59.85
2023-02-11T05:13:08.151Z,59.90
2023-02-11T05:16:00.647Z,60.03
2023-02-11T05:18:53.737Z,60.01
2023-02-11T05:22:01.404Z,60.14
2023-02-11T05:24:52.976Z,60.13
2023-02-11T05:27:45.051Z,60.17
2023-02-11T05:30:37.182Z,60.10
2023-02-11T05:33:29.634Z,60.21
2023-02-11T05:36:21.744Z,59.98
2023-02-11T05:39:13.719Z,60.13
2023-02-11T05:42:06.223Z,60.28
2023-02-11T05:44:58.420Z,60.07
2023-02-11T05:47:50.481Z,59.85
2023-02-11T05:50:42.569Z,59.96
2023-02-11T05:53:34.706Z,60.02
2023-02-11T05:56:26.868Z,59.94
2023-02-11T05:59:18.969Z,60.13
2023-02-11T06:02:11.671Z,59.94
2023-02-11T06:05:03.967Z,60.09
2023-02-11T06:07:56.140Z,59.94
2023-02-11T06:10:48.783Z,60.24
2023-02-11T06:13:40.844Z,60.34
2023-02-11T06:16:15.165Z,60.42
2023-02-11T06:19:07.338Z,60.19
2023-02-11T06:21:59.923Z,60.35
2023-02-11T06:25:01.302Z,60.43
2023-02-11T06:27:54.670Z,60.33
2023-02-11T06:30:46.928Z,60.13
2023-02-11T06:33:39.277Z,60.51
2023-02-11T06:36:32.021Z,60.57
2023-02-11T06:39:24.215Z,60.52
2023-02-11T06:42:16.319Z,60.60
2023-02-11T06:44:53.431Z,60.45
2023-02-11T06:47:28.473Z,60.67
2023-02-11T06:50:00.520Z,60.58
2023-02-11T06:52:43.619Z,60.57
2023-02-11T06:55:15.860Z,60.56
2023-02-11T06:57:50.717Z,60.54
2023-02-11T07:00:33.208Z,60.37
2023-02-11T07:03:25.340Z,60.47
2023-02-11T07:06:19.771Z,60.45
2023-02-11T07:09:11.953Z,60.36
2023-02-11T07:11:54.832Z,60.49
2023-02-11T07:14:34.217Z,60.02
2023-02-11T07:17:06.062Z,60.04
2023-02-11T07:19:58.321Z,60.00
2023-02-11T07:22:33.302Z,59.90
2023-02-11T07:25:25.355Z,59.88
2023-02-11T07:28:17.482Z,59.89
2023-02-11T07:31:11.634Z,59.84
2023-02-11T07:34:04.588Z,59.63
2023-02-11T07:36:56.685Z,59.62
2023-02-11T07:39:48.858Z,59.80
2023-02-11T07:42:41.828Z,59.62
2023-02-11T07:45:33.962Z,59.54
2023-02-11T07:48:26.125Z,59.23
2023-02-11T07:51:20.362Z,59.27
2023-02-11T07:54:13.271Z,58.81
2023-02-11T07:57:05.333Z,58.15
2023-02-11T07:59:53.943Z,56.05
2023-02-11T08:02:34.971Z,53.54
2023-02-11T08:05:27.272Z,53.58
2023-02-11T08:08:19.358Z,52.31
2023-02-11T08:11:13.657Z,50.04
2023-02-11T08:14:05.961Z,49.93
2023-02-11T08:16:58.094Z,50.65
2023-02-11T08:19:41.318Z,51.16
2023-02-11T08:22:35.837Z,51.34
2023-02-11T08:25:09.259Z,51.76
2023-02-11T08:28:01.388Z,52.14
2023-02-11T08:30:53.645Z,52.75
2023-02-11T08:33:46.201Z,52.97
2023-02-11T08:36:40.199Z,53.46
2023-02-11T08:39:32.355Z,53.83
2023-02-11T08:42:24.536Z,54.11
2023-02-11T08:45:16.621Z,54.15
2023-02-11T08:48:08.979Z,54.42
2023-02-11T08:51:01.151Z,54.39
2023-02-11T08:53:53.618Z,54.55
2023-02-11T08:56:35.204Z,54.63
2023-02-11T08:59:27.390Z,54.73
2023-02-11T09:02:19.514Z,54.97
2023-02-11T09:05:12.089Z,55.06
2023-02-11T09:07:47.314Z,55.11
2023-02-11T09:10:39.673Z,55.16
2023-02-11T09:13:31.819Z,55.06
2023-02-11T09:16:26.652Z,55.12
2023-02-11T09:19:19.401Z,55.29
2023-02-11T09:22:02.465Z,55.11
2023-02-11T09:24:54.530Z,55.25
2023-02-11T09:27:29.700Z,55.34
2023-02-11T09:30:22.701Z,55.23
2023-02-11T09:33:14.864Z,55.48
2023-02-11T09:36:08.473Z,55.38
2023-02-11T09:39:03.131Z,55.55
2023-02-11T09:42:26.389Z,55.56
2023-02-11T09:45:23.110Z,55.56
2023-02-11T09:48:18.741Z,55.59
2023-02-11T09:51:23.980Z,55.58
2023-02-11T09:54:22.238Z,55.49
2023-02-11T09:57:27.655Z,55.30
2023-02-11T10:00:25.443Z,55.15
2023-02-11T10:03:41.488Z,55.25
2023-02-11T10:06:42.091Z,55.30
2023-02-11T10:09:50.848Z,55.37
2023-02-11T10:12:59.829Z,55.23
2023-02-11T10:15:44.615Z,55.26
2023-02-11T10:18:47.606Z,55.07
2023-02-11T10:21:47.896Z,54.89
2023-02-11T10:24:52.868Z,55.03
2023-02-11T10:27:41.431Z,54.99
2023-02-11T10:30:38.336Z,54.96
2023-02-11T10:33:35.692Z,55.22
2023-02-11T10:36:29.810Z,54.96
2023-02-11T10:39:24.132Z,54.42
2023-02-11T10:42:16.858Z,54.26
2023-02-11T10:45:17.796Z,53.76
2023-02-11T10:47:59.131Z,53.75
2023-02-11T10:50:51.650Z,53.46
2023-02-11T10:53:44.143Z,53.42
2023-02-11T10:56:39.096Z,53.09
2023-02-11T10:59:30.381Z,53.13
2023-02-11T11:02:32.265Z,53.00
2023-02-11T11:05:26.680Z,53.02
2023-02-11T11:08:20.189Z,53.13
2023-02-11T11:11:14.636Z,53.21
2023-02-11T11:14:19.525Z,53.37
2023-02-11T11:17:23.116Z,53.69
2023-02-11T11:20:35.529Z,53.80
2023-02-11T11:23:19.719Z,53.93
2023-02-11T11:26:14.106Z,54.12
2023-02-11T11:29:16.113Z,54.05
2023-02-11T11:32:20.606Z,54.46
2023-02-11T11:35:26.232Z,54.39
2023-02-11T11:38:18.328Z,54.41
2023-02-11T11:41:27.079Z,54.65
2023-02-11T11:44:27.023Z,54.74
2023-02-11T11:47:31.713Z,55.13
2023-02-11T11:50:31.791Z,55.16
2023-02-11T11:53:30.447Z,55.85
2023-02-11T11:56:25.749Z,56.04
2023-02-11T11:59:17.947Z,56.29
2023-02-11T12:02:36.701Z,56.63
2023-02-11T12:05:37.178Z,56.90
2023-02-11T12:08:36.052Z,57.10
2023-02-11T12:11:35.566Z,57.19
2023-02-11T12:14:42.078Z,57.55
2023-02-11T12:17:43.185Z,57.76
2023-02-11T12:20:45.097Z,57.86
2023-02-11T12:23:40.039Z,57.84
2023-02-11T12:26:40.312Z,57.93
2023-02-11T12:29:42.171Z,58.10
2023-02-11T12:32:41.857Z,58.43
2023-02-11T12:35:28.394Z,58.73
2023-02-11T12:38:19.023Z,58.95
2023-02-11T12:41:07.819Z,59.44
2023-02-11T12:44:00.902Z,59.96
2023-02-11T12:47:03.110Z,60.40
2023-02-11T12:50:05.238Z,60.72
2023-02-11T12:53:08.059Z,61.22
2023-02-11T12:56:06.504Z,61.38
2023-02-11T12:58:45.479Z,61.84
2023-02-11T13:01:41.722Z,62.07
2023-02-11T13:04:36.215Z,62.15
2023-02-11T13:07:34.239Z,62.17
2023-02-11T13:10:31.524Z,62.06
2023-02-11T13:13:20.643Z,62.25
2023-02-11T13:16:29.608Z,62.16
2023-02-11T13:19:30.268Z,62.19
2023-02-11T13:22:19.465Z,62.26
2023-02-11T13:25:06.142Z,62.52
2023-02-11T13:27:50.888Z,62.79
2023-02-11T13:30:51.691Z,63.13
2023-02-11T13:33:45.918Z,63.42
2023-02-11T13:36:38.079Z,63.80
2023-02-11T13:39:30.509Z,64.12
2023-02-11T13:42:19.003Z,64.11
2023-02-11T13:45:28.840Z,64.29
2023-02-11T13:48:14.702Z,64.53
2023-02-11T13:51:10.135Z,64.51
2023-02-11T13:54:04.103Z,64.54
2023-02-11T13:57:27.150Z,64.88
2023-02-11T14:00:52.256Z,65.05
2023-02-11T14:04:38.604Z,64.94
2023-02-11T14:07:51.011Z,64.98
2023-02-11T14:10:57.776Z,65.04
2023-02-11T14:14:16.606Z,64.95
2023-02-11T14:17:32.276Z,65.39
2023-02-11T14:20:44.658Z,65.70
2023-02-11T14:23:37.454Z,66.29
2023-02-11T14:26:41.695Z,66.49
2023-02-11T14:29:27.315Z,66.75
2023-02-11T14:32:34.639Z,66.81
2023-02-11T14:35:34.613Z,67.07
2023-02-11T14:38:39.656Z,67.21
2023-02-11T14:41:21.917Z,67.46
2023-02-11T14:44:19.068Z,67.52
2023-02-11T14:47:18.951Z,67.51
2023-02-11T14:50:20.265Z,67.68
2023-02-11T14:53:19.241Z,67.80
2023-02-11T14:56:21.925Z,67.89
2023-02-11T14:59:21.670Z,67.95
2023-02-11T15:02:31.553Z,68.02
2023-02-11T15:05:27.227Z,68.14
2023-02-11T15:08:19.453Z,68.25
2023-02-11T15:11:15.028Z,68.17
2023-02-11T15:14:08.070Z,68.50
2023-02-11T15:16:53.368Z,68.41
2023-02-11T15:19:49.978Z,68.39
2023-02-11T15:22:45.559Z,68.44
2023-02-11T15:25:51.389Z,68.45
2023-02-11T15:28:52.023Z,68.65
2023-02-11T15:31:44.219Z,68.61
2023-02-11T15:34:37.443Z,68.72
2023-02-11T15:37:18.440Z,68.73
2023-02-11T15:40:19.174Z,68.83
2023-02-11T15:43:12.682Z,68.69
2023-02-11T15:46:06.078Z,68.90
2023-02-11T15:48:51.789Z,69.08
2023-02-11T15:51:48.345Z,69.12
2023-02-11T15:54:40.804Z,69.12
2023-02-11T15:57:33.047Z,69.14
2023-02-11T16:00:32.506Z,69.30
2023-02-11T16:03:28.753Z,69.36
2023-02-11T16:06:21.462Z,69.35
2023-02-11T16:09:05.812Z,69.23
2023-02-11T16:12:00.484Z,69.51
2023-02-11T16:14:53.136Z,69.59
2023-02-11T16:17:34.239Z,69.68
2023-02-11T16:20:21.644Z,69.63
2023-02-11T16:23:23.306Z,69.63
2023-02-11T16:26:25.575Z,69.96
2023-02-11T16:29:12.577Z,69.78
2023-02-11T16:32:17.736Z,70.14
2023-02-11T16:35:14.860Z,69.95
2023-02-11T16:38:07.062Z,70.24
2023-02-11T16:40:59.514Z,70.62
2023-02-11T16:43:51.956Z,70.76
2023-02-11T16:46:44.562Z,70.86
2023-02-11T16:49:39.470Z,70.66
2023-02-11T16:52:31.777Z,70.71
2023-02-11T16:55:23.951Z,70.65
2023-02-11T16:58:16.542Z,70.81
2023-02-11T17:01:09.842Z,70.64
2023-02-11T17:04:03.233Z,70.89
2023-02-11T17:06:58.216Z,71.12
2023-02-11T17:09:41.025Z,71.08
2023-02-11T17:12:15.868Z,70.93
2023-02-11T17:14:50.708Z,70.98
2023-02-11T17:17:43.059Z,71.07
2023-02-11T17:20:35.231Z,71.29
2023-02-11T17:23:10.136Z,71.21
2023-02-11T17:25:57.828Z,71.08
2023-02-11T17:28:49.896Z,71.14
2023-02-11T17:31:43.279Z,71.12
2023-02-11T17:34:35.598Z,71.32
2023-02-11T17:37:27.883Z,71.54
2023-02-11T17:40:20.788Z,71.33
2023-02-11T17:42:55.723Z,71.41
2023-02-11T17:45:48.206Z,71.43
2023-02-11T17:48:41.444Z,71.55
2023-02-11T17:51:36.117Z,71.67
2023-02-11T17:54:28.254Z,71.70
2023-02-11T17:57:10.969Z,71.73
2023-02-11T17:59:46.380Z,71.74
2023-02-11T18:02:21.603Z,71.89
2023-02-11T18:05:04.564Z,72.18
2023-02-11T18:07:36.738Z,71.95
2023-02-11T18:10:11.119Z,72.17
2023-02-11T18:13:03.619Z,72.16
2023-02-11T18:15:56.339Z,72.27
2023-02-11T18:18:38.040Z,72.36
2023-02-11T18:21:14.366Z,72.31
2023-02-11T18:23:50.332Z,72.38
2023-02-11T18:26:43.820Z,72.47
2023-02-11T18:29:16.332Z,72.40
2023-02-11T18:32:08.785Z,72.44
2023-02-11T18:34:44.521Z,72.51
2023-02-11T18:37:19.870Z,72.56
2023-02-11T18:40:01.066Z,72.65
2023-02-11T18:42:42.844Z,72.76
2023-02-11T18:45:35.125Z,72.73
2023-02-11T18:48:18.130Z,72.73
2023-02-11T18:51:14.656Z,72.97
2023-02-11T18:54:06.965Z,73.01
2023-02-11T18:56:59.175Z,73.01
2023-02-11T18:59:51.569Z,73.08
2023-02-11T19:02:43.974Z,73.24
2023-02-11T19:05:43.365Z,73.23
2023-02-11T19:08:35.900Z,73.20
2023-02-11T19:11:43.117Z,73.21
2023-02-11T19:14:36.175Z,73.29
2023-02-11T19:17:17.616Z,73.28
2023-02-11T19:20:11.897Z,73.33
2023-02-11T19:23:04.069Z,73.42
2023-02-11T19:25:56.181Z,73.42
2023-02-11T19:28:48.361Z,73.45
2023-02-11T19:31:40.803Z,73.46
2023-02-11T19:34:33.447Z,73.62
2023-02-11T19:37:25.861Z,73.58
2023-02-11T19:40:19.406Z,73.63
2023-02-11T19:43:11.559Z,73.51
2023-02-11T19:46:06.063Z,73.56
2023-02-11T19:49:00.149Z,73.52
2023-02-11T19:51:52.964Z,73.57
2023-02-11T19:54:45.157Z,73.77
2023-02-11T19:57:38.663Z,73.81
2023-02-11T20:00:30.938Z,73.85
2023-02-11T20:03:24.316Z,73.85
2023-02-11T20:05:56.513Z,73.90
2023-02-11T20:08:48.853Z,73.82
2023-02-11T20:11:41.798Z,73.90
2023-02-11T20:14:34.241Z,73.94
2023-02-11T20:17:26.718Z,73.97
2023-02-11T20:20:19.337Z,73.98
2023-02-11T20:23:11.649Z,74.00
2023-02-11T20:25:54.331Z,74.11
2023-02-11T20:28:35.880Z,74.06
2023-02-11T20:31:28.442Z,74.20
2023-02-11T20:34:21.896Z,74.29
2023-02-11T20:37:14.162Z,74.22
2023-02-11T20:40:07.614Z,74.28
2023-02-11T20:43:00.259Z,74.26
2023-02-11T20:45:50.558Z,74.30
2023-02-11T20:48:43.336Z,74.33
2023-02-11T20:51:28.121Z,74.40
2023-02-11T20:54:03.284Z,74.32
2023-02-11T20:56:56.784Z,74.21
2023-02-11T20:59:49.113Z,74.27
2023-02-11T21:02:42.716Z,74.23
2023-02-11T21:05:34.873Z,74.27
2023-02-11T21:08:27.117Z,74.32
2023-02-11T21:11:20.031Z,74.36
2023-02-11T21:14:03.020Z,74.26
2023-02-11T21:16:55.267Z,74.35
2023-02-11T21:19:50.085Z,74.21
2023-02-11T21:22:42.565Z,74.31
2023-02-11T21:25:34.648Z,74.25
2023-02-11T21:28:27.276Z,74.18
2023-02-11T21:31:28.282Z,74.30
2023-02-11T21:34:20.751Z,74.22
2023-02-11T21:37:12.843Z,74.25
2023-02-11T21:40:04.961Z,74.32
2023-02-11T21:42:57.977Z,74.23
2023-02-11T21:45:52.304Z,74.17
2023-02-11T21:48:44.579Z,74.34
2023-02-11T21:51:36.814Z,74.27
2023-02-11T21:54:31.985Z,74.28
2023-02-11T21:57:24.179Z,74.39
2023-02-11T22:00:18.791Z,74.33
2023-02-11T22:03:11.528Z,74.27
2023-02-11T22:06:09.181Z,74.29
2023-02-11T22:09:03.292Z,74.27
2023-02-11T22:11:55.398Z,74.22
2023-02-11T22:14:36.400Z,74.24
2023-02-11T22:17:13.579Z,74.30
2023-02-11T22:19:56.498Z,74.43
2023-02-11T22:22:48.552Z,74.35
2023-02-11T22:25:29.132Z,74.25
2023-02-11T22:28:03.984Z,74.27
2023-02-11T22:30:57.753Z,74.23
2023-02-11T22:33:32.516Z,74.31
2023-02-11T22:36:10.177Z,74.27
2023-02-11T22:39:04.891Z,74.30
2023-02-11T22:41:42.809Z,74.32
2023-02-11T22:44:34.893Z,74.31
2023-02-11T22:47:27.049Z,74.26
2023-02-11T22:50:19.069Z,74.20
2023-02-11T22:53:11.184Z,74.16
2023-02-11T22:56:06.998Z,74.26
2023-02-11T22:59:02.147Z,74.11
2023-02-11T23:01:54.503Z,74.22
2023-02-11T23:04:49.614Z,74.27
2023-02-11T23:07:42.042Z,74.25
2023-02-11T23:10:35.065Z,74.29
2023-02-11T23:13:27.156Z,74.31
2023-02-11T23:16:12.075Z,74.36
2023-02-11T23:19:08.206Z,74.26
2023-02-11T23:22:00.327Z,74.22
2023-02-11T23:24:52.328Z,74.20
2023-02-11T23:27:44.442Z,74.17
2023-02-11T23:30:36.607Z,74.20
2023-02-11T23:33:17.768Z,74.09
2023-02-11T23:36:10.815Z,74.14
2023-02-11T23:39:02.908Z,74.27
2023-02-11T23:41:58.951Z,74.23
2023-02-11T23:44:51.004Z,74.12
2023-02-11T23:47:43.142Z,74.26
2023-02-11T23:50:35.783Z,74.34
2023-02-11T23:53:28.045Z,74.21
2023-02-11T23:56:23.073Z,74.27
2023-02-11T23:59:15.379Z,74.31
